Time;durP1;ratioP1;P1;durP2;ratioP2;P2;SDS_P1;SDS_P2;PMS_P1;PMS_P2;Temp;Humidity;BMP_temperature;BMP_pressure;BME280_temperature;BME280_humidity;BME280_pressure;Samples;Min_cycle;Max_cycle;Signal;HPM_P1;HPM_P2
2023/08/29 00:01:13;;;;;;;5.68;3.17;;;12.20;99.90;;;;;;7373757;19;20026;-63
2023/08/29 00:03:39;;;;;;;4.90;3.13;;;12.10;99.90;;;;;;7377438;19;20018;-64
2023/08/29 00:06:06;;;;;;;3.10;2.40;;;12.10;99.90;;;;;;7374836;19;20023;-64
2023/08/29 00:08:33;;;;;;;4.65;2.80;;;12.10;99.90;;;;;;7376053;19;20018;-63
2023/08/29 00:11:02;;;;;;;3.72;2.08;;;12.10;99.90;;;;;;7375562;19;20180;-62
2023/08/29 00:13:29;;;;;;;4.05;2.30;;;12.00;99.90;;;;;;7376549;19;20038;-63
2023/08/29 00:15:55;;;;;;;2.60;2.30;;;11.90;99.90;;;;;;7373634;19;20022;-63
2023/08/29 00:18:22;;;;;;;3.95;2.35;;;11.90;99.90;;;;;;7373178;19;20059;-63
2023/08/29 00:20:52;;;;;;;3.75;2.47;;;11.90;99.90;;;;;;7374691;19;20043;-63
2023/08/29 00:23:19;;;;;;;3.97;2.83;;;11.90;99.90;;;;;;7370657;19;21103;-64
2023/08/29 00:25:46;;;;;;;2.95;2.60;;;11.90;99.90;;;;;;7373294;19;20019;-63
2023/08/29 00:28:13;;;;;;;5.47;2.50;;;11.80;99.90;;;;;;7374890;19;20074;-63
2023/08/29 00:30:40;;;;;;;3.13;2.40;;;11.80;99.90;;;;;;7372427;19;20041;-62
2023/08/29 00:33:09;;;;;;;4.50;2.40;;;11.80;99.90;;;;;;7374332;19;20423;-62
2023/08/29 00:35:36;;;;;;;2.65;1.90;;;11.70;99.90;;;;;;7375023;19;20038;-61
2023/08/29 00:38:22;;;;;;;2.67;2.17;;;11.70;99.90;;;;;;7372878;19;20077;-62
2023/08/29 00:40:49;;;;;;;3.05;2.30;;;11.60;99.90;;;;;;7373706;19;20018;-62
2023/08/29 00:43:15;;;;;;;3.00;2.28;;;11.60;99.90;;;;;;7373103;19;20362;-63
2023/08/29 00:45:42;;;;;;;3.90;2.40;;;11.60;99.90;;;;;;7376264;19;20021;-62
2023/08/29 00:48:09;;;;;;;2.75;2.45;;;11.50;99.90;;;;;;7372739;19;20033;-63
2023/08/29 00:50:35;;;;;;;3.13;2.25;;;11.50;99.90;;;;;;7373230;19;20574;-62
2023/08/29 00:53:04;;;;;;;3.97;2.47;;;11.40;99.90;;;;;;7372016;19;20347;-62
2023/08/29 00:55:33;;;;;;;4.07;1.95;;;11.50;99.90;;;;;;7369714;19;20052;-62
2023/08/29 00:58:01;;;;;;;4.07;2.72;;;11.40;99.90;;;;;;7375594;19;20026;-62
2023/08/29 01:00:29;;;;;;;3.92;2.60;;;11.50;99.90;;;;;;7378047;19;20014;-63
2023/08/29 01:02:57;;;;;;;4.80;2.05;;;11.40;99.90;;;;;;7376442;19;20016;-63
2023/08/29 01:05:24;;;;;;;6.78;2.60;;;11.40;99.90;;;;;;7375320;19;20022;-63
2023/08/29 01:07:53;;;;;;;4.55;2.20;;;11.30;99.90;;;;;;7372291;19;20011;-62
2023/08/29 01:10:26;;;;;;;4.80;2.10;;;11.30;99.90;;;;;;7369959;19;20018;-63
2023/08/29 01:13:14;;;;;;;2.60;1.90;;;11.30;99.90;;;;;;7371236;19;20099;-63
2023/08/29 01:15:43;;;;;;;3.55;2.00;;;11.30;99.90;;;;;;7368667;19;20086;-62
2023/08/29 01:18:12;;;;;;;2.88;2.13;;;11.20;99.90;;;;;;7369914;19;20433;-62
2023/08/29 01:20:41;;;;;;;2.15;1.92;;;11.30;99.90;;;;;;7366283;19;20015;-63
2023/08/29 01:23:17;;;;;;;3.58;2.55;;;11.20;99.90;;;;;;7364482;19;20478;-62
2023/08/29 01:25:47;;;;;;;4.32;2.85;;;11.30;99.90;;;;;;7370651;19;20019;-63
2023/08/29 01:28:14;;;;;;;4.30;2.40;;;11.30;99.90;;;;;;7367387;19;20553;-63
2023/08/29 01:30:42;;;;;;;3.65;3.10;;;11.30;99.90;;;;;;7368472;19;20018;-63
2023/08/29 01:33:09;;;;;;;5.15;3.35;;;11.30;99.90;;;;;;7367983;19;20400;-63
2023/08/29 01:35:47;;;;;;;4.88;3.50;;;11.30;99.90;;;;;;7366986;19;20494;-62
2023/08/29 01:38:17;;;;;;;6.13;3.05;;;11.30;99.90;;;;;;7366976;19;20018;-63
2023/08/29 01:40:44;;;;;;;3.65;2.53;;;11.30;99.90;;;;;;7365986;19;20022;-63
2023/08/29 01:43:10;;;;;;;3.80;2.38;;;11.20;99.90;;;;;;7368102;19;20467;-62
2023/08/29 01:45:37;;;;;;;4.68;2.83;;;11.20;99.90;;;;;;7366587;19;20063;-63
2023/08/29 01:48:04;;;;;;;5.03;2.42;;;11.10;99.90;;;;;;7365863;19;20755;-62
2023/08/29 01:50:32;;;;;;;3.60;2.53;;;11.10;99.90;;;;;;7366961;19;20469;-63
2023/08/29 01:53:00;;;;;;;2.90;1.90;;;11.00;99.90;;;;;;7369684;19;20026;-63
2023/08/29 01:55:28;;;;;;;3.45;2.30;;;11.00;99.90;;;;;;7362242;19;20022;-62
2023/08/29 01:57:57;;;;;;;3.05;2.40;;;11.00;99.90;;;;;;7367828;19;20398;-62
2023/08/29 02:00:24;;;;;;;3.83;2.72;;;10.90;99.90;;;;;;7367668;19;20018;-62
2023/08/29 02:02:50;;;;;;;4.18;3.10;;;10.90;99.90;;;;;;7368526;19;20018;-62
2023/08/29 02:05:17;;;;;;;5.45;3.70;;;10.90;99.90;;;;;;7366226;19;20543;-62
2023/08/29 02:07:43;;;;;;;10.48;4.18;;;10.90;99.90;;;;;;7368573;19;20022;-62
2023/08/29 02:10:10;;;;;;;4.68;3.92;;;10.90;99.90;;;;;;7369482;19;20029;-63
2023/08/29 02:12:37;;;;;;;3.60;3.20;;;10.90;99.90;;;;;;7368769;19;20018;-62
2023/08/29 02:15:05;;;;;;;4.45;2.70;;;10.90;99.90;;;;;;7368675;19;20103;-63
2023/08/29 02:17:32;;;;;;;3.25;2.63;;;10.80;99.90;;;;;;7363686;19;20018;-62
2023/08/29 02:19:59;;;;;;;3.55;2.72;;;10.80;99.90;;;;;;7367491;19;20021;-63
2023/08/29 02:22:26;;;;;;;3.38;2.70;;;10.80;99.90;;;;;;7365172;19;20018;-62
2023/08/29 02:24:52;;;;;;;4.05;2.80;;;10.80;99.90;;;;;;7366924;19;20164;-63
2023/08/29 02:27:19;;;;;;;3.55;2.83;;;10.80;99.90;;;;;;7364506;19;20064;-63
2023/08/29 02:29:45;;;;;;;2.75;2.33;;;10.80;99.90;;;;;;7368433;19;20035;-63
2023/08/29 02:32:11;;;;;;;2.63;2.20;;;10.80;99.90;;;;;;7366962;19;20044;-63
2023/08/29 02:34:38;;;;;;;2.92;2.28;;;10.80;99.90;;;;;;7366197;19;20386;-63
2023/08/29 02:37:05;;;;;;;4.07;3.05;;;10.80;99.90;;;;;;7364603;19;20057;-63
2023/08/29 02:39:31;;;;;;;2.97;2.22;;;10.80;99.90;;;;;;7369149;19;20019;-63
2023/08/29 02:41:58;;;;;;;3.80;2.50;;;10.80;99.90;;;;;;7361206;19;20022;-62
2023/08/29 02:44:26;;;;;;;3.15;2.53;;;10.80;99.90;;;;;;7367199;19;20018;-62
2023/08/29 02:46:52;;;;;;;2.95;2.15;;;10.80;99.90;;;;;;7367993;19;20088;-62
2023/08/29 02:49:19;;;;;;;2.47;2.10;;;10.70;99.90;;;;;;7366653;19;20440;-62
2023/08/29 02:51:45;;;;;;;4.35;2.78;;;10.60;99.90;;;;;;7369318;19;20458;-63
2023/08/29 02:54:11;;;;;;;2.70;2.35;;;10.70;99.90;;;;;;7363664;19;20030;-63
2023/08/29 02:56:38;;;;;;;4.22;2.80;;;10.60;99.90;;;;;;7367264;19;20489;-63
2023/08/29 02:59:04;;;;;;;3.47;3.00;;;10.60;99.90;;;;;;7360644;19;20011;-63
2023/08/29 03:01:50;;;;;;;4.75;2.50;;;10.60;99.90;;;;;;7367672;19;20010;-64
2023/08/29 03:04:16;;;;;;;3.47;2.22;;;10.60;99.90;;;;;;7361966;19;20026;-64
2023/08/29 03:06:42;;;;;;;4.53;2.40;;;10.50;99.90;;;;;;7366787;19;20022;-64
2023/08/29 03:09:09;;;;;;;4.22;2.25;;;10.50;99.90;;;;;;7364868;19;20011;-64
2023/08/29 03:11:35;;;;;;;3.15;2.03;;;10.40;99.90;;;;;;7365629;19;20022;-64
2023/08/29 03:14:03;;;;;;;3.38;2.00;;;10.40;99.90;;;;;;7363486;19;20023;-63
2023/08/29 03:16:30;;;;;;;2.65;1.90;;;10.40;99.90;;;;;;7362658;19;20018;-61
2023/08/29 03:18:57;;;;;;;2.65;1.90;;;10.30;99.90;;;;;;7371812;19;20029;-63
2023/08/29 03:21:23;;;;;;;2.40;1.95;;;10.20;99.90;;;;;;7368799;19;20022;-63
2023/08/29 03:23:49;;;;;;;2.85;1.73;;;10.20;99.90;;;;;;7370555;19;20561;-64
2023/08/29 03:26:16;;;;;;;12.32;2.08;;;10.20;99.90;;;;;;7369437;19;20455;-62
2023/08/29 03:28:45;;;;;;;2.80;1.60;;;10.20;99.90;;;;;;7374449;19;20469;-63
2023/08/29 03:31:14;;;;;;;2.15;1.75;;;10.10;99.90;;;;;;7370173;19;20014;-62
2023/08/29 03:33:42;;;;;;;2.20;1.80;;;10.10;99.90;;;;;;7373079;19;20366;-62
2023/08/29 03:36:09;;;;;;;3.75;2.08;;;10.10;99.90;;;;;;7367221;19;21132;-63
2023/08/29 03:38:40;;;;;;;3.45;2.22;;;10.10;99.90;;;;;;7370795;19;20055;-63
2023/08/29 03:41:07;;;;;;;3.03;2.30;;;10.10;99.90;;;;;;7363115;19;20118;-63
2023/08/29 03:43:34;;;;;;;2.60;2.20;;;10.10;99.90;;;;;;7369959;19;20105;-63
2023/08/29 03:46:03;;;;;;;3.67;2.50;;;10.10;99.90;;;;;;7368288;19;20118;-63
2023/08/29 03:48:50;;;;;;;7.90;2.85;;;10.10;99.90;;;;;;7366393;19;20010;-63
2023/08/29 03:51:17;;;;;;;3.78;3.00;;;10.00;99.90;;;;;;7364384;19;20553;-64
2023/08/29 03:53:43;;;;;;;4.30;3.10;;;10.00;99.90;;;;;;7371788;19;20054;-64
2023/08/29 03:56:11;;;;;;;3.42;2.42;;;10.00;99.90;;;;;;7367810;19;20058;-64
2023/08/29 03:58:37;;;;;;;3.55;2.50;;;10.00;99.90;;;;;;7371103;19;20459;-63
2023/08/29 04:01:04;;;;;;;3.55;2.50;;;10.00;99.90;;;;;;7363035;19;20014;-63
2023/08/29 04:03:31;;;;;;;3.33;2.20;;;10.00;99.90;;;;;;7370616;19;20481;-64
2023/08/29 04:05:58;;;;;;;3.28;2.47;;;10.00;99.90;;;;;;7369552;19;20444;-63
2023/08/29 04:08:24;;;;;;;4.47;2.47;;;9.90;99.90;;;;;;7366166;19;20025;-64
2023/08/29 04:10:50;;;;;;;2.75;1.95;;;9.90;99.90;;;;;;7370024;19;20022;-64
2023/08/29 04:13:16;;;;;;;3.83;1.90;;;9.80;99.90;;;;;;7365903;19;20026;-63
2023/08/29 04:15:43;;;;;;;2.85;1.98;;;9.80;99.90;;;;;;7368825;19;20018;-63
2023/08/29 04:18:10;;;;;;;4.00;2.28;;;9.70;99.90;;;;;;7363971;19;20485;-63
2023/08/29 04:20:37;;;;;;;3.40;2.45;;;9.70;99.90;;;;;;7365335;19;20424;-63
2023/08/29 04:23:04;;;;;;;3.53;2.20;;;9.60;99.90;;;;;;7366590;19;20674;-64
2023/08/29 04:25:30;;;;;;;4.70;2.40;;;9.60;99.90;;;;;;7366443;19;20514;-63
2023/08/29 04:27:57;;;;;;;3.92;2.58;;;9.60;99.90;;;;;;7363123;19;21005;-63
2023/08/29 04:30:27;;;;;;;3.67;2.00;;;9.60;99.90;;;;;;7362659;19;20018;-63
2023/08/29 04:32:54;;;;;;;2.40;1.90;;;9.60;99.90;;;;;;7369089;19;20022;-63
2023/08/29 04:35:20;;;;;;;4.22;1.83;;;9.60;99.90;;;;;;7366048;19;20037;-63
2023/08/29 04:37:48;;;;;;;2.00;1.60;;;9.60;99.90;;;;;;7371894;19;20024;-63
2023/08/29 04:40:21;;;;;;;1.40;1.20;;;9.60;99.90;;;;;;7366277;19;20115;-63
2023/08/29 04:42:50;;;;;;;2.03;1.42;;;9.60;99.90;;;;;;7371351;19;20026;-64
2023/08/29 04:45:16;;;;;;;3.35;1.83;;;9.60;99.90;;;;;;7366843;19;20022;-64
2023/08/29 04:47:43;;;;;;;2.33;1.50;;;9.60;99.90;;;;;;7372337;19;20356;-65
2023/08/29 04:50:09;;;;;;;2.58;2.00;;;9.60;99.90;;;;;;7368658;19;20011;-63
2023/08/29 04:52:35;;;;;;;2.80;1.42;;;9.60;99.90;;;;;;7362801;19;20014;-63
2023/08/29 04:55:05;;;;;;;2.53;1.55;;;9.60;99.90;;;;;;7373266;19;20082;-65
2023/08/29 04:57:32;;;;;;;4.20;1.88;;;9.60;99.90;;;;;;7367133;19;20018;-65
2023/08/29 05:00:00;;;;;;;2.53;1.75;;;9.70;99.90;;;;;;7368612;19;20102;-65
2023/08/29 05:02:27;;;;;;;2.50;1.70;;;9.70;99.90;;;;;;7359539;19;20374;-65
2023/08/29 05:04:54;;;;;;;2.80;1.80;;;9.60;99.90;;;;;;7372210;19;20636;-65
2023/08/29 05:07:21;;;;;;;2.13;1.52;;;9.70;99.90;;;;;;7363892;19;20494;-65
2023/08/29 05:09:47;;;;;;;2.45;1.60;;;9.70;99.90;;;;;;7365336;19;20045;-64
2023/08/29 05:12:13;;;;;;;2.63;1.77;;;9.70;99.90;;;;;;7364523;19;20022;-64
2023/08/29 05:14:42;;;;;;;2.35;1.52;;;9.70;99.90;;;;;;7367306;19;20021;-65
2023/08/29 05:17:10;;;;;;;2.17;1.60;;;9.70;99.90;;;;;;7366522;19;20525;-64
2023/08/29 05:19:36;;;;;;;2.55;1.75;;;9.80;99.90;;;;;;7364065;19;21110;-64
2023/08/29 05:22:03;;;;;;;4.43;1.70;;;9.80;99.90;;;;;;7364224;19;20473;-64
2023/08/29 05:24:29;;;;;;;3.22;1.70;;;9.80;99.90;;;;;;7366946;19;20422;-64
2023/08/29 05:26:55;;;;;;;4.22;2.00;;;9.90;99.90;;;;;;7371723;19;20020;-64
2023/08/29 05:29:22;;;;;;;3.35;1.75;;;9.90;99.90;;;;;;7359900;19;20452;-64
2023/08/29 05:31:49;;;;;;;2.95;2.08;;;9.90;99.90;;;;;;7365848;19;20571;-62
2023/08/29 05:34:15;;;;;;;3.35;1.95;;;9.90;99.90;;;;;;7366624;19;20010;-63
2023/08/29 05:36:41;;;;;;;2.90;2.03;;;9.90;99.90;;;;;;7369626;19;20459;-64
2023/08/29 05:39:07;;;;;;;3.60;2.53;;;9.80;99.90;;;;;;7364699;19;20018;-63
2023/08/29 05:41:34;;;;;;;3.47;2.10;;;9.90;99.90;;;;;;7367528;19;20118;-63
2023/08/29 05:44:00;;;;;;;3.60;1.80;;;9.80;99.90;;;;;;7360801;19;20032;-63
2023/08/29 05:46:26;;;;;;;2.63;1.77;;;9.90;99.90;;;;;;7363958;19;20561;-63
2023/08/29 05:48:52;;;;;;;1.60;1.23;;;9.90;99.90;;;;;;7363438;19;20610;-63
2023/08/29 05:51:19;;;;;;;1.90;1.52;;;9.90;99.90;;;;;;7367937;19;20010;-63
2023/08/29 05:53:45;;;;;;;1.83;1.30;;;10.00;99.90;;;;;;7368313;19;20045;-63
2023/08/29 05:56:11;;;;;;;1.92;1.27;;;10.00;99.90;;;;;;7365160;19;20029;-64
2023/08/29 05:58:37;;;;;;;2.30;1.00;;;10.00;99.90;;;;;;7364003;19;20018;-65
2023/08/29 06:01:06;;;;;;;3.25;1.63;;;10.00;99.90;;;;;;7363670;19;20046;-65
2023/08/29 06:03:34;;;;;;;3.05;2.10;;;10.00;99.90;;;;;;7365932;19;20513;-65
2023/08/29 06:06:03;;;;;;;5.05;2.05;;;10.10;99.90;;;;;;7362899;19;20037;-68
2023/08/29 06:08:33;;;;;;;3.80;2.03;;;10.10;99.90;;;;;;7368217;19;20022;-66
2023/08/29 06:11:00;;;;;;;2.22;1.73;;;10.20;99.90;;;;;;7366737;19;20019;-64
2023/08/29 06:13:27;;;;;;;3.20;2.03;;;10.20;99.90;;;;;;7363599;19;20022;-64
2023/08/29 06:16:13;;;;;;;4.82;2.63;;;10.30;99.90;;;;;;7366603;19;20086;-66
2023/08/29 06:18:40;;;;;;;5.47;2.90;;;10.40;99.90;;;;;;7370627;19;20022;-64
2023/08/29 06:21:06;;;;;;;5.38;3.20;;;10.50;99.90;;;;;;7363283;19;20434;-62
2023/08/29 06:23:32;;;;;;;4.00;2.75;;;10.60;99.90;;;;;;7363376;19;20042;-62
2023/08/29 06:26:02;;;;;;;4.10;2.70;;;10.70;99.90;;;;;;7360912;19;20068;-63
2023/08/29 06:28:29;;;;;;;3.83;2.78;;;10.80;99.90;;;;;;7368259;19;20022;-63
2023/08/29 06:30:55;;;;;;;4.78;3.03;;;10.90;99.90;;;;;;7364726;19;20015;-64
2023/08/29 06:33:24;;;;;;;3.58;2.75;;;11.00;99.90;;;;;;7366870;19;20022;-63
2023/08/29 06:35:50;;;;;;;6.38;3.08;;;11.20;99.90;;;;;;7365504;19;20019;-63
2023/08/29 06:38:16;;;;;;;5.75;3.42;;;11.30;99.90;;;;;;7360544;19;20358;-64
2023/08/29 06:40:43;;;;;;;4.40;2.88;;;11.40;99.90;;;;;;7368855;19;20022;-64
2023/08/29 06:43:09;;;;;;;4.95;3.33;;;11.50;99.90;;;;;;7360184;19;20647;-63
2023/08/29 06:45:35;;;;;;;4.00;3.20;;;11.60;99.90;;;;;;7366009;19;20018;-63
2023/08/29 06:48:02;;;;;;;3.88;2.70;;;11.80;99.90;;;;;;7365221;19;20033;-64
2023/08/29 06:50:28;;;;;;;5.05;3.30;;;12.00;99.90;;;;;;7360639;19;20093;-63
2023/08/29 06:52:54;;;;;;;6.13;3.78;;;12.20;99.90;;;;;;7369778;19;20474;-63
2023/08/29 06:55:20;;;;;;;4.90;3.30;;;12.40;99.90;;;;;;7371926;19;20026;-66
2023/08/29 06:57:47;;;;;;;5.47;3.45;;;12.60;99.90;;;;;;7367022;19;20579;-66
2023/08/29 07:00:13;;;;;;;5.50;3.53;;;12.80;99.90;;;;;;7374705;19;20019;-63
2023/08/29 07:02:39;;;;;;;5.57;3.85;;;13.20;99.90;;;;;;7373027;19;20019;-65
2023/08/29 07:05:06;;;;;;;5.75;3.10;;;13.60;99.90;;;;;;7374373;19;20024;-65
2023/08/29 07:07:32;;;;;;;5.10;3.08;;;14.00;99.90;;;;;;7371197;19;20014;-66
2023/08/29 07:09:59;;;;;;;5.72;2.78;;;14.50;99.90;;;;;;7375881;19;20019;-66
2023/08/29 07:12:25;;;;;;;7.00;3.15;;;14.70;99.90;;;;;;7371236;19;20263;-66
2023/08/29 07:14:51;;;;;;;4.20;3.17;;;15.20;99.90;;;;;;7372939;19;20007;-67
2023/08/29 07:17:18;;;;;;;4.50;2.90;;;15.60;99.90;;;;;;7372138;19;20480;-67
2023/08/29 07:19:44;;;;;;;4.20;2.78;;;15.90;99.90;;;;;;7375276;19;20385;-66
2023/08/29 07:22:10;;;;;;;3.65;2.78;;;16.10;99.90;;;;;;7369058;19;20015;-67
2023/08/29 07:24:39;;;;;;;3.33;2.30;;;16.50;99.90;;;;;;7370829;19;20114;-66
2023/08/29 07:27:06;;;;;;;3.75;2.20;;;16.80;99.90;;;;;;7371226;19;20030;-62
2023/08/29 07:29:32;;;;;;;4.57;2.40;;;17.10;99.90;;;;;;7369638;19;20022;-66
2023/08/29 07:31:58;;;;;;;5.38;2.50;;;17.40;99.90;;;;;;7370196;19;20482;-66
2023/08/29 07:34:26;;;;;;;3.38;2.28;;;17.50;99.90;;;;;;7368776;19;20304;-66
2023/08/29 07:36:52;;;;;;;4.95;1.90;;;17.60;99.90;;;;;;7365707;19;20014;-67
2023/08/29 07:39:20;;;;;;;4.55;2.17;;;17.90;99.90;;;;;;7373842;19;20867;-67
2023/08/29 07:41:46;;;;;;;3.03;1.90;;;18.00;99.90;;;;;;7368632;19;20027;-66
2023/08/29 07:44:13;;;;;;;6.00;2.25;;;18.30;99.90;;;;;;7373559;19;20037;-63
2023/08/29 07:46:39;;;;;;;3.85;1.58;;;18.30;99.90;;;;;;7369449;19;20386;-62
2023/08/29 07:49:13;;;;;;;3.65;2.15;;;18.40;99.90;;;;;;7369518;19;20436;-63
2023/08/29 07:51:40;;;;;;;4.82;2.00;;;18.50;99.90;;;;;;7370518;19;20579;-63
2023/08/29 07:54:06;;;;;;;3.20;1.60;;;18.70;99.90;;;;;;7366793;19;20481;-62
2023/08/29 07:56:33;;;;;;;2.50;1.95;;;18.90;99.90;;;;;;7372992;19;20389;-62
2023/08/29 07:59:00;;;;;;;3.28;1.90;;;19.00;99.90;;;;;;7370314;19;20028;-63
2023/08/29 08:01:26;;;;;;;6.18;1.98;;;19.20;99.90;;;;;;7367480;19;20774;-62
2023/08/29 08:03:52;;;;;;;3.90;2.00;;;19.40;99.90;;;;;;7369448;19;20010;-63
2023/08/29 08:06:18;;;;;;;3.10;1.85;;;19.50;99.90;;;;;;7367325;19;20376;-63
2023/08/29 08:08:44;;;;;;;4.80;1.48;;;19.70;99.90;;;;;;7368128;19;20058;-63
2023/08/29 08:11:11;;;;;;;2.05;1.10;;;19.80;99.90;;;;;;7365114;19;20512;-63
2023/08/29 08:13:37;;;;;;;1.90;1.05;;;20.00;99.90;;;;;;7372855;19;20342;-63
2023/08/29 08:16:04;;;;;;;3.83;1.25;;;20.20;99.90;;;;;;7364022;19;20018;-63
2023/08/29 08:18:30;;;;;;;0.82;0.80;;;20.40;99.90;;;;;;7366549;19;20018;-63
2023/08/29 08:20:56;;;;;;;1.23;0.50;;;20.60;99.90;;;;;;7370414;19;20047;-62
2023/08/29 08:23:22;;;;;;;1.42;0.47;;;20.70;99.90;;;;;;7367321;19;20347;-62
2023/08/29 08:25:49;;;;;;;2.38;0.77;;;20.50;99.90;;;;;;7373947;19;20633;-62
2023/08/29 08:28:15;;;;;;;1.95;0.73;;;20.40;99.90;;;;;;7367243;19;20589;-62
2023/08/29 08:30:41;;;;;;;3.90;1.38;;;20.50;99.90;;;;;;7368931;19;20022;-62
2023/08/29 08:33:08;;;;;;;2.65;0.80;;;20.40;99.90;;;;;;7367884;19;20074;-62
2023/08/29 08:35:35;;;;;;;1.02;0.60;;;20.50;99.90;;;;;;7370597;19;20093;-62
2023/08/29 08:38:01;;;;;;;3.38;0.98;;;20.60;99.90;;;;;;7368745;19;20025;-62
2023/08/29 08:40:28;;;;;;;4.03;0.75;;;20.60;99.90;;;;;;7366668;19;20018;-63
2023/08/29 08:42:56;;;;;;;2.40;0.90;;;20.30;99.90;;;;;;7367796;19;20829;-62
2023/08/29 08:45:23;;;;;;;3.42;0.77;;;20.30;99.90;;;;;;7370016;19;20034;-65
2023/08/29 08:47:49;;;;;;;2.33;1.08;;;20.30;99.90;;;;;;7368313;19;20018;-62
2023/08/29 08:50:16;;;;;;;1.60;0.70;;;20.30;99.90;;;;;;7365109;19;20635;-62
2023/08/29 08:52:43;;;;;;;2.13;0.70;;;20.30;99.90;;;;;;7362686;19;20573;-65
2023/08/29 08:55:10;;;;;;;3.05;0.80;;;20.40;99.90;;;;;;7367091;19;20463;-64
2023/08/29 08:57:36;;;;;;;3.58;0.95;;;20.50;99.90;;;;;;7367981;19;20022;-66
2023/08/29 09:00:06;;;;;;;3.38;1.20;;;20.70;99.90;;;;;;7370238;19;20018;-65
2023/08/29 09:02:35;;;;;;;2.13;1.15;;;20.80;99.90;;;;;;7365279;19;20030;-67
2023/08/29 09:05:01;;;;;;;3.08;1.25;;;21.00;99.90;;;;;;7372306;19;20491;-68
2023/08/29 09:07:28;;;;;;;3.80;1.45;;;21.30;99.90;;;;;;7364410;19;20014;-68
2023/08/29 09:10:19;;;;;;;3.30;1.40;;;21.40;99.90;;;;;;7366167;19;20481;-67
2023/08/29 09:12:50;;;;;;;4.72;1.33;;;21.50;99.90;;;;;;7367982;19;20042;-68
2023/08/29 09:15:22;;;;;;;3.42;1.17;;;21.50;99.90;;;;;;7366310;19;20014;-67
2023/08/29 09:17:50;;;;;;;2.42;1.30;;;21.50;99.90;;;;;;7369651;19;21939;-72
2023/08/29 09:20:17;;;;;;;1.63;1.00;;;21.50;99.90;;;;;;7359489;19;20078;-65
2023/08/29 09:22:45;;;;;;;4.00;1.13;;;21.40;99.90;;;;;;7370180;19;20014;-65
2023/08/29 09:25:12;;;;;;;4.38;1.10;;;21.30;99.90;;;;;;7368026;19;20014;-66
2023/08/29 09:27:40;;;;;;;4.28;1.20;;;21.40;99.90;;;;;;7370188;19;20014;-65
2023/08/29 09:30:08;;;;;;;2.53;1.00;;;21.40;99.90;;;;;;7367665;19;20030;-65
2023/08/29 09:32:34;;;;;;;2.95;1.23;;;21.60;99.90;;;;;;7371244;19;20031;-66
2023/08/29 09:35:01;;;;;;;2.03;0.80;;;21.80;99.90;;;;;;7371960;19;20018;-66
2023/08/29 09:37:32;;;;;;;3.08;1.08;;;22.20;99.90;;;;;;7366181;19;20958;-62
2023/08/29 09:40:00;;;;;;;2.40;1.00;;;22.40;99.90;;;;;;7367999;19;20038;-67
2023/08/29 09:42:29;;;;;;;3.83;0.95;;;22.60;99.90;;;;;;7366732;19;20010;-62
2023/08/29 09:44:58;;;;;;;;;;;22.90;99.90;;;;;;7364077;19;20489;-61
2023/08/29 09:47:24;;;;;;;2.70;0.70;;;23.10;99.90;;;;;;7365297;19;19919;-63
2023/08/29 09:49:50;;;;;;;5.72;2.40;;;23.30;99.90;;;;;;7367421;19;21213;-66
2023/08/29 09:52:18;;;;;;;4.22;0.85;;;23.60;99.90;;;;;;7362761;19;20107;-66
2023/08/29 09:54:48;;;;;;;1.80;0.80;;;24.20;99.90;;;;;;7367541;19;20473;-66
2023/08/29 09:57:16;;;;;;;3.03;0.57;;;23.80;99.90;;;;;;7366801;19;20026;-66
2023/08/29 09:59:43;;;;;;;3.00;0.98;;;23.80;99.90;;;;;;7367742;19;20032;-67
2023/08/29 10:02:11;;;;;;;2.97;1.05;;;23.80;99.90;;;;;;7360973;19;20967;-66
2023/08/29 10:04:46;;;;;;;2.05;0.75;;;23.60;99.90;;;;;;7369916;19;20094;-67
2023/08/29 10:07:16;;;;;;;2.78;0.90;;;23.30;99.90;;;;;;7367540;19;20924;-67
2023/08/29 10:09:43;;;;;;;10.40;9.23;;;22.80;99.90;;;;;;7362870;19;20019;-66
2023/08/29 10:12:10;;;;;;;2.38;0.95;;;22.60;99.90;;;;;;7364973;19;20018;-67
2023/08/29 10:14:37;;;;;;;2.47;1.00;;;22.40;99.90;;;;;;7364723;19;20029;-68
2023/08/29 10:17:06;;;;;;;3.42;1.25;;;21.90;99.90;;;;;;7367790;19;20021;-67
2023/08/29 10:19:33;;;;;;;1.52;0.80;;;21.90;99.90;;;;;;7366951;19;20521;-67
2023/08/29 10:22:01;;;;;;;2.45;1.27;;;21.90;99.90;;;;;;7368648;19;20015;-67
2023/08/29 10:24:28;;;;;;;2.67;0.80;;;21.70;99.90;;;;;;7365544;19;20476;-67
2023/08/29 10:26:55;;;;;;;2.10;0.60;;;21.60;99.90;;;;;;7372271;19;20507;-65
2023/08/29 10:29:22;;;;;;;1.75;0.80;;;21.60;99.90;;;;;;7372770;19;20624;-67
2023/08/29 10:32:08;;;;;;;1.88;0.60;;;21.30;99.90;;;;;;7372550;19;20350;-66
2023/08/29 10:34:35;;;;;;;1.50;0.70;;;21.00;99.90;;;;;;7370691;19;20025;-66
2023/08/29 10:37:03;;;;;;;1.05;0.63;;;20.80;99.90;;;;;;7375989;19;20422;-66
2023/08/29 10:39:30;;;;;;;1.95;0.65;;;20.70;99.90;;;;;;7365569;19;20409;-66
2023/08/29 10:41:57;;;;;;;1.23;0.88;;;20.60;99.90;;;;;;7375509;19;20018;-66
2023/08/29 10:44:36;;;;;;;1.05;0.60;;;20.50;99.90;;;;;;7364597;19;20037;-66
2023/08/29 10:47:30;;;;;;;3.15;0.80;;;20.40;99.90;;;;;;7374301;19;20482;-62
2023/08/29 10:49:59;;;;;;;1.65;1.10;;;20.20;99.90;;;;;;7376295;19;20050;-65
2023/08/29 10:52:39;;;;;;;2.50;1.00;;;19.90;99.90;;;;;;7369317;19;20474;-66
2023/08/29 10:55:20;;;;;;;3.50;1.10;;;19.90;99.90;;;;;;7375296;19;20493;-66
2023/08/29 10:57:47;;;;;;;2.87;1.40;;;19.80;99.90;;;;;;7373003;19;20010;-66
2023/08/29 11:00:41;;;;;;;2.67;1.10;;;19.60;99.90;;;;;;7374217;19;20493;-66
2023/08/29 11:03:08;;;;;;;1.80;1.20;;;19.60;99.90;;;;;;7366561;19;20026;-66
2023/08/29 11:05:40;;;;;;;3.03;1.30;;;19.60;99.90;;;;;;7375911;19;20018;-66
2023/08/29 11:08:24;;;;;;;2.03;1.00;;;19.60;99.90;;;;;;7373364;19;20042;-66
2023/08/29 11:11:19;;;;;;;3.67;1.10;;;19.60;99.90;;;;;;7376142;19;20441;-66
2023/08/29 11:14:06;;;;;;;2.05;0.85;;;19.70;99.90;;;;;;7373446;19;20019;-64
2023/08/29 11:16:37;;;;;;;1.52;0.63;;;19.70;99.90;;;;;;7369342;19;20038;-66
2023/08/29 11:19:11;;;;;;;2.60;0.73;;;19.70;99.90;;;;;;7373227;19;20074;-66
2023/08/29 11:21:38;;;;;;;4.82;0.70;;;19.50;99.90;;;;;;7366802;19;20427;-66
2023/08/29 11:24:05;;;;;;;3.17;0.80;;;19.60;99.90;;;;;;7369907;19;20453;-65
2023/08/29 11:26:35;;;;;;;2.83;1.10;;;19.60;99.90;;;;;;7368513;19;20021;-62
2023/08/29 11:29:05;;;;;;;2.15;0.70;;;19.70;99.90;;;;;;7374178;19;20013;-62
2023/08/29 11:31:32;;;;;;;1.40;0.93;;;19.80;99.90;;;;;;7368469;19;20018;-62
2023/08/29 11:34:01;;;;;;;1.95;0.88;;;19.90;99.90;;;;;;7368275;19;20018;-62
2023/08/29 11:36:32;;;;;;;1.98;0.80;;;20.10;99.90;;;;;;7368022;19;20579;-66
2023/08/29 11:38:59;;;;;;;3.30;1.20;;;20.30;99.90;;;;;;7373329;19;20010;-66
2023/08/29 11:41:28;;;;;;;2.15;0.80;;;20.40;99.90;;;;;;7365925;19;20082;-63
2023/08/29 11:43:59;;;;;;;1.30;0.75;;;20.70;99.90;;;;;;7369522;19;20052;-66
2023/08/29 11:46:32;;;;;;;1.95;0.68;;;20.90;99.90;;;;;;7370759;19;20025;-62
2023/08/29 11:48:59;;;;;;;3.45;0.80;;;21.30;99.90;;;;;;7366980;19;20015;-66
2023/08/29 11:51:25;;;;;;;1.77;1.00;;;21.60;99.90;;;;;;7366913;19;20014;-67
2023/08/29 11:53:52;;;;;;;12.45;9.85;;;22.80;99.90;;;;;;7370552;19;20450;-70
2023/08/29 11:56:18;;;;;;;1.63;0.90;;;23.70;99.90;;;;;;7369966;19;20070;-69
2023/08/29 11:58:45;;;;;;;3.50;1.50;;;24.20;99.90;;;;;;7373437;19;20022;-69
2023/08/29 12:01:12;;;;;;;21.02;18.77;;;25.20;99.90;;;;;;7366517;19;20030;-69
2023/08/29 12:03:38;;;;;;;2.83;1.92;;;25.60;99.90;;;;;;7371111;19;20052;-69
2023/08/29 12:06:12;;;;;;;11.52;9.50;;;25.50;99.90;;;;;;7370510;19;20015;-69
2023/08/29 12:08:41;;;;;;;2.40;1.40;;;25.10;99.90;;;;;;7374732;19;20087;-69
2023/08/29 12:11:08;;;;;;;32.25;29.23;;;25.40;99.90;;;;;;7367367;19;20562;-70
2023/08/29 12:13:36;;;;;;;14.38;12.98;;;25.10;99.60;;;;;;7369321;19;20046;-70
2023/08/29 12:16:04;;;;;;;3.72;3.25;;;24.60;99.70;;;;;;7369657;19;20044;-64
2023/08/29 12:18:32;;;;;;;2.60;1.33;;;23.90;99.90;;;;;;7370900;19;20048;-63
2023/08/29 12:21:17;;;;;;;4.03;2.33;;;23.40;99.90;;;;;;7369521;19;20010;-63
2023/08/29 12:23:44;;;;;;;4.15;2.25;;;23.30;99.90;;;;;;7373246;19;20030;-63
2023/08/29 12:26:11;;;;;;;3.65;2.10;;;23.10;99.90;;;;;;7366850;19;20109;-63
2023/08/29 12:28:38;;;;;;;6.03;4.10;;;22.90;99.90;;;;;;7373420;19;20486;-64
2023/08/29 12:31:09;;;;;;;9.50;7.60;;;22.80;99.90;;;;;;7371826;19;20014;-64
2023/08/29 12:33:37;;;;;;;3.60;1.98;;;22.60;99.90;;;;;;7371073;19;20070;-68
2023/08/29 12:36:04;;;;;;;11.27;8.63;;;22.50;99.90;;;;;;7366848;19;20042;-63
2023/08/29 12:38:31;;;;;;;5.55;3.75;;;22.50;99.90;;;;;;7369460;19;20029;-68
2023/08/29 12:40:57;;;;;;;13.63;12.18;;;22.40;99.90;;;;;;7368366;19;20354;-62
2023/08/29 12:43:25;;;;;;;22.48;20.25;;;22.30;99.90;;;;;;7365305;19;20493;-69
2023/08/29 12:45:51;;;;;;;4.15;1.98;;;22.30;99.90;;;;;;7369790;19;20014;-68
2023/08/29 12:48:18;;;;;;;6.35;4.10;;;22.10;99.90;;;;;;7363671;19;20046;-69
2023/08/29 12:50:45;;;;;;;4.00;2.35;;;22.20;99.90;;;;;;7362927;19;20389;-68
2023/08/29 12:53:12;;;;;;;5.55;4.03;;;22.10;99.90;;;;;;7367692;19;20127;-67